sensor_id;sensor_type;location;lat;lon;timestamp;P1;durP1;ratioP1;P2;durP2;ratioP2
33108;SDS011;19481;51.118;6.940;2022-07-29T00:01:38;5.82;;;1.38;;
33108;SDS011;19481;51.118;6.940;2022-07-29T00:06:39;5.10;;;1.42;;
33108;SDS011;19481;51.118;6.940;2022-07-29T00:11:41;6.00;;;0.95;;
33108;SDS011;19481;51.118;6.940;2022-07-29T00:16:44;3.58;;;1.20;;
33108;SDS011;19481;51.118;6.940;2022-07-29T00:21:46;1.95;;;1.08;;
33108;SDS011;19481;51.118;6.940;2022-07-29T00:26:47;3.47;;;1.27;;
33108;SDS011;19481;51.118;6.940;2022-07-29T00:31:50;1.45;;;0.90;;
33108;SDS011;19481;51.118;6.940;2022-07-29T00:36:52;5.13;;;1.20;;
33108;SDS011;19481;51.118;6.940;2022-07-29T00:41:53;6.85;;;1.10;;
33108;SDS011;19481;51.118;6.940;2022-07-29T00:46:56;1.38;;;1.02;;
33108;SDS011;19481;51.118;6.940;2022-07-29T00:51:58;2.58;;;1.15;;
33108;SDS011;19481;51.118;6.940;2022-07-29T00:57:02;4.32;;;0.95;;
33108;SDS011;19481;51.118;6.940;2022-07-29T01:02:05;1.58;;;1.15;;
33108;SDS011;19481;51.118;6.940;2022-07-29T01:07:07;3.63;;;1.23;;
33108;SDS011;19481;51.118;6.940;2022-07-29T01:12:09;4.57;;;1.23;;
33108;SDS011;19481;51.118;6.940;2022-07-29T01:17:17;5.07;;;1.38;;
33108;SDS011;19481;51.118;6.940;2022-07-29T01:27:48;3.83;;;1.30;;
33108;SDS011;19481;51.118;6.940;2022-07-29T01:33:05;2.65;;;1.15;;
33108;SDS011;19481;51.118;6.940;2022-07-29T01:38:12;5.65;;;1.30;;
33108;SDS011;19481;51.118;6.940;2022-07-29T01:43:18;2.20;;;1.20;;
33108;SDS011;19481;51.118;6.940;2022-07-29T01:48:27;6.53;;;1.30;;
33108;SDS011;19481;51.118;6.940;2022-07-29T01:53:36;3.33;;;1.30;;
33108;SDS011;19481;51.118;6.940;2022-07-29T01:58:42;3.13;;;1.10;;
33108;SDS011;19481;51.118;6.940;2022-07-29T02:03:47;4.30;;;1.50;;
33108;SDS011;19481;51.118;6.940;2022-07-29T02:08:50;5.70;;;1.00;;
33108;SDS011;19481;51.118;6.940;2022-07-29T02:13:54;1.63;;;1.20;;
33108;SDS011;19481;51.118;6.940;2022-07-29T02:19:00;3.72;;;1.20;;
33108;SDS011;19481;51.118;6.940;2022-07-29T02:24:03;1.40;;;1.30;;
33108;SDS011;19481;51.118;6.940;2022-07-29T02:29:05;2.40;;;1.33;;
33108;SDS011;19481;51.118;6.940;2022-07-29T02:34:10;2.90;;;1.17;;
33108;SDS011;19481;51.118;6.940;2022-07-29T02:39:13;1.20;;;1.08;;
33108;SDS011;19481;51.118;6.940;2022-07-29T02:44:16;7.47;;;1.38;;
33108;SDS011;19481;51.118;6.940;2022-07-29T02:49:25;3.55;;;1.70;;
33108;SDS011;19481;51.118;6.940;2022-07-29T02:54:33;4.55;;;1.30;;
33108;SDS011;19481;51.118;6.940;2022-07-29T02:59:40;5.63;;;1.60;;
33108;SDS011;19481;51.118;6.940;2022-07-29T03:04:45;4.93;;;1.30;;
33108;SDS011;19481;51.118;6.940;2022-07-29T03:09:49;4.10;;;1.33;;
33108;SDS011;19481;51.118;6.940;2022-07-29T03:14:52;2.97;;;1.40;;
33108;SDS011;19481;51.118;6.940;2022-07-29T03:19:56;3.83;;;1.08;;
33108;SDS011;19481;51.118;6.940;2022-07-29T03:25:03;4.40;;;1.35;;
33108;SDS011;19481;51.118;6.940;2022-07-29T03:30:09;3.40;;;1.55;;
33108;SDS011;19481;51.118;6.940;2022-07-29T03:35:13;1.58;;;1.30;;
33108;SDS011;19481;51.118;6.940;2022-07-29T03:40:16;7.00;;;1.98;;
33108;SDS011;19481;51.118;6.940;2022-07-29T03:45:21;3.08;;;1.65;;
33108;SDS011;19481;51.118;6.940;2022-07-29T03:50:26;6.82;;;1.58;;
33108;SDS011;19481;51.118;6.940;2022-07-29T03:55:32;12.02;;;1.60;;
33108;SDS011;19481;51.118;6.940;2022-07-29T04:00:37;2.00;;;1.10;;
33108;SDS011;19481;51.118;6.940;2022-07-29T04:05:40;7.18;;;1.50;;
33108;SDS011;19481;51.118;6.940;2022-07-29T04:10:42;4.43;;;1.55;;
33108;SDS011;19481;51.118;6.940;2022-07-29T04:15:43;6.80;;;1.70;;
33108;SDS011;19481;51.118;6.940;2022-07-29T04:20:46;4.28;;;1.40;;
33108;SDS011;19481;51.118;6.940;2022-07-29T04:25:48;3.13;;;1.30;;
33108;SDS011;19481;51.118;6.940;2022-07-29T04:30:50;6.57;;;1.20;;
33108;SDS011;19481;51.118;6.940;2022-07-29T04:35:53;2.60;;;1.10;;
33108;SDS011;19481;51.118;6.940;2022-07-29T04:40:54;3.17;;;0.93;;
33108;SDS011;19481;51.118;6.940;2022-07-29T04:45:56;4.53;;;1.30;;
33108;SDS011;19481;51.118;6.940;2022-07-29T04:50:59;3.95;;;1.30;;
33108;SDS011;19481;51.118;6.940;2022-07-29T04:56:00;3.08;;;1.20;;
33108;SDS011;19481;51.118;6.940;2022-07-29T05:01:02;2.85;;;1.40;;
33108;SDS011;19481;51.118;6.940;2022-07-29T05:06:06;3.60;;;1.40;;
33108;SDS011;19481;51.118;6.940;2022-07-29T05:11:07;6.72;;;1.30;;
33108;SDS011;19481;51.118;6.940;2022-07-29T05:16:09;7.50;;;1.38;;
33108;SDS011;19481;51.118;6.940;2022-07-29T05:21:12;2.92;;;1.35;;
33108;SDS011;19481;51.118;6.940;2022-07-29T05:26:13;4.65;;;1.50;;
33108;SDS011;19481;51.118;6.940;2022-07-29T05:31:15;1.45;;;1.35;;
33108;SDS011;19481;51.118;6.940;2022-07-29T05:36:18;1.15;;;1.00;;
33108;SDS011;19481;51.118;6.940;2022-07-29T05:41:19;2.80;;;1.00;;
33108;SDS011;19481;51.118;6.940;2022-07-29T05:46:21;4.43;;;1.27;;
33108;SDS011;19481;51.118;6.940;2022-07-29T05:51:24;3.05;;;1.20;;
33108;SDS011;19481;51.118;6.940;2022-07-29T05:56:26;6.68;;;1.30;;
33108;SDS011;19481;51.118;6.940;2022-07-29T06:01:28;3.75;;;0.95;;
33108;SDS011;19481;51.118;6.940;2022-07-29T06:06:31;9.02;;;1.20;;
33108;SDS011;19481;51.118;6.940;2022-07-29T06:11:32;24.95;;;9.57;;
33108;SDS011;19481;51.118;6.940;2022-07-29T06:16:34;20.08;;;5.55;;
33108;SDS011;19481;51.118;6.940;2022-07-29T06:21:37;29.25;;;12.07;;
33108;SDS011;19481;51.118;6.940;2022-07-29T06:26:42;13.45;;;3.70;;
33108;SDS011;19481;51.118;6.940;2022-07-29T06:31:44;7.15;;;1.40;;
33108;SDS011;19481;51.118;6.940;2022-07-29T06:36:47;2.25;;;1.05;;
33108;SDS011;19481;51.118;6.940;2022-07-29T06:41:49;3.20;;;1.20;;
33108;SDS011;19481;51.118;6.940;2022-07-29T06:46:51;5.03;;;1.52;;
33108;SDS011;19481;51.118;6.940;2022-07-29T06:51:56;3.08;;;1.40;;
33108;SDS011;19481;51.118;6.940;2022-07-29T06:56:57;2.72;;;1.10;;
33108;SDS011;19481;51.118;6.940;2022-07-29T07:01:59;5.63;;;1.48;;
33108;SDS011;19481;51.118;6.940;2022-07-29T07:07:02;2.10;;;1.17;;
33108;SDS011;19481;51.118;6.940;2022-07-29T07:12:04;4.95;;;1.23;;
33108;SDS011;19481;51.118;6.940;2022-07-29T07:17:06;6.13;;;1.17;;
33108;SDS011;19481;51.118;6.940;2022-07-29T07:22:09;3.70;;;1.33;;
33108;SDS011;19481;51.118;6.940;2022-07-29T07:27:10;2.13;;;1.42;;
33108;SDS011;19481;51.118;6.940;2022-07-29T07:32:12;5.75;;;1.55;;
33108;SDS011;19481;51.118;6.940;2022-07-29T07:37:17;2.10;;;1.30;;
33108;SDS011;19481;51.118;6.940;2022-07-29T07:42:20;9.48;;;2.65;;
33108;SDS011;19481;51.118;6.940;2022-07-29T07:47:22;5.07;;;1.58;;
33108;SDS011;19481;51.118;6.940;2022-07-29T07:52:25;5.40;;;2.28;;
33108;SDS011;19481;51.118;6.940;2022-07-29T07:57:27;4.97;;;2.10;;
33108;SDS011;19481;51.118;6.940;2022-07-29T08:02:28;5.03;;;1.85;;
33108;SDS011;19481;51.118;6.940;2022-07-29T08:07:31;4.35;;;1.85;;
33108;SDS011;19481;51.118;6.940;2022-07-29T08:12:33;6.72;;;1.88;;
33108;SDS011;19481;51.118;6.940;2022-07-29T08:17:35;6.80;;;1.92;;
33108;SDS011;19481;51.118;6.940;2022-07-29T08:22:38;7.68;;;1.75;;
33108;SDS011;19481;51.118;6.940;2022-07-29T08:27:39;5.85;;;1.80;;
33108;SDS011;19481;51.118;6.940;2022-07-29T08:32:41;8.85;;;2.13;;
33108;SDS011;19481;51.118;6.940;2022-07-29T08:37:44;8.60;;;2.38;;
33108;SDS011;19481;51.118;6.940;2022-07-29T08:42:45;14.25;;;5.35;;
33108;SDS011;19481;51.118;6.940;2022-07-29T08:47:47;7.47;;;3.08;;
33108;SDS011;19481;51.118;6.940;2022-07-29T08:52:50;11.18;;;5.95;;
33108;SDS011;19481;51.118;6.940;2022-07-29T08:57:52;10.77;;;4.95;;
33108;SDS011;19481;51.118;6.940;2022-07-29T09:02:56;14.77;;;3.38;;
33108;SDS011;19481;51.118;6.940;2022-07-29T09:08:00;17.40;;;9.77;;
33108;SDS011;19481;51.118;6.940;2022-07-29T09:13:02;8.60;;;3.00;;
33108;SDS011;19481;51.118;6.940;2022-07-29T09:18:05;8.70;;;2.83;;
33108;SDS011;19481;51.118;6.940;2022-07-29T09:23:08;9.23;;;2.75;;
33108;SDS011;19481;51.118;6.940;2022-07-29T09:28:10;10.48;;;2.70;;
33108;SDS011;19481;51.118;6.940;2022-07-29T09:33:14;7.00;;;2.65;;
33108;SDS011;19481;51.118;6.940;2022-07-29T09:38:16;7.63;;;2.38;;
33108;SDS011;19481;51.118;6.940;2022-07-29T09:43:18;9.45;;;2.55;;
33108;SDS011;19481;51.118;6.940;2022-07-29T09:48:20;8.98;;;2.67;;
33108;SDS011;19481;51.118;6.940;2022-07-29T09:53:31;5.60;;;2.65;;
33108;SDS011;19481;51.118;6.940;2022-07-29T09:58:33;5.13;;;2.55;;
33108;SDS011;19481;51.118;6.940;2022-07-29T10:03:49;5.22;;;2.85;;
33108;SDS011;19481;51.118;6.940;2022-07-29T10:08:53;5.88;;;2.70;;
33108;SDS011;19481;51.118;6.940;2022-07-29T10:13:55;9.98;;;2.60;;
33108;SDS011;19481;51.118;6.940;2022-07-29T10:18:56;9.40;;;2.85;;
33108;SDS011;19481;51.118;6.940;2022-07-29T10:23:59;12.85;;;3.08;;
33108;SDS011;19481;51.118;6.940;2022-07-29T10:29:02;6.05;;;2.70;;
33108;SDS011;19481;51.118;6.940;2022-07-29T10:34:04;8.88;;;3.17;;
33108;SDS011;19481;51.118;6.940;2022-07-29T10:39:17;5.22;;;3.00;;
33108;SDS011;19481;51.118;6.940;2022-07-29T10:44:27;11.57;;;3.53;;
33108;SDS011;19481;51.118;6.940;2022-07-29T10:49:29;5.68;;;2.55;;
33108;SDS011;19481;51.118;6.940;2022-07-29T10:54:42;7.38;;;2.85;;
33108;SDS011;19481;51.118;6.940;2022-07-29T10:59:46;6.38;;;2.88;;
33108;SDS011;19481;51.118;6.940;2022-07-29T11:04:58;7.20;;;3.30;;
33108;SDS011;19481;51.118;6.940;2022-07-29T11:10:21;6.13;;;3.90;;
33108;SDS011;19481;51.118;6.940;2022-07-29T11:15:24;9.05;;;4.13;;
33108;SDS011;19481;51.118;6.940;2022-07-29T11:20:36;8.38;;;4.65;;
33108;SDS011;19481;51.118;6.940;2022-07-29T11:25:41;13.48;;;7.07;;
33108;SDS011;19481;51.118;6.940;2022-07-29T11:30:47;6.70;;;2.85;;
33108;SDS011;19481;51.118;6.940;2022-07-29T11:41:25;7.40;;;2.00;;
33108;SDS011;19481;51.118;6.940;2022-07-29T11:51:52;5.20;;;2.05;;
33108;SDS011;19481;51.118;6.940;2022-07-29T11:56:55;6.35;;;4.03;;
33108;SDS011;19481;51.118;6.940;2022-07-29T12:01:58;5.55;;;1.90;;
33108;SDS011;19481;51.118;6.940;2022-07-29T12:07:01;3.13;;;1.85;;
33108;SDS011;19481;51.118;6.940;2022-07-29T12:12:05;4.25;;;1.65;;
33108;SDS011;19481;51.118;6.940;2022-07-29T12:17:06;2.15;;;1.30;;
33108;SDS011;19481;51.118;6.940;2022-07-29T12:22:26;5.10;;;1.60;;
33108;SDS011;19481;51.118;6.940;2022-07-29T12:27:30;4.05;;;1.20;;
33108;SDS011;19481;51.118;6.940;2022-07-29T12:32:33;3.03;;;1.55;;
33108;SDS011;19481;51.118;6.940;2022-07-29T12:37:36;2.33;;;1.58;;
33108;SDS011;19481;51.118;6.940;2022-07-29T12:42:40;3.13;;;1.50;;
33108;SDS011;19481;51.118;6.940;2022-07-29T12:47:51;5.05;;;1.58;;
33108;SDS011;19481;51.118;6.940;2022-07-29T12:52:53;7.00;;;1.70;;
33108;SDS011;19481;51.118;6.940;2022-07-29T12:57:56;5.65;;;2.47;;
33108;SDS011;19481;51.118;6.940;2022-07-29T13:02:58;9.60;;;2.45;;
33108;SDS011;19481;51.118;6.940;2022-07-29T13:08:09;1.80;;;1.30;;
33108;SDS011;19481;51.118;6.940;2022-07-29T13:13:13;4.32;;;1.48;;
33108;SDS011;19481;51.118;6.940;2022-07-29T13:18:26;6.15;;;1.50;;
33108;SDS011;19481;51.118;6.940;2022-07-29T13:23:28;5.72;;;1.50;;
33108;SDS011;19481;51.118;6.940;2022-07-29T13:28:32;5.22;;;1.48;;
33108;SDS011;19481;51.118;6.940;2022-07-29T13:33:34;2.90;;;1.70;;
33108;SDS011;19481;51.118;6.940;2022-07-29T13:38:35;4.93;;;1.63;;
33108;SDS011;19481;51.118;6.940;2022-07-29T13:43:38;2.90;;;1.60;;
33108;SDS011;19481;51.118;6.940;2022-07-29T13:48:40;4.57;;;1.90;;
33108;SDS011;19481;51.118;6.940;2022-07-29T13:53:41;4.47;;;1.80;;
33108;SDS011;19481;51.118;6.940;2022-07-29T13:58:45;5.70;;;1.85;;
33108;SDS011;19481;51.118;6.940;2022-07-29T14:03:46;2.30;;;1.38;;
33108;SDS011;19481;51.118;6.940;2022-07-29T14:08:48;9.45;;;1.83;;
33108;SDS011;19481;51.118;6.940;2022-07-29T14:13:51;4.93;;;1.90;;
33108;SDS011;19481;51.118;6.940;2022-07-29T14:18:53;5.82;;;1.77;;
33108;SDS011;19481;51.118;6.940;2022-07-29T14:23:54;4.93;;;1.90;;
33108;SDS011;19481;51.118;6.940;2022-07-29T14:28:57;4.13;;;2.50;;
33108;SDS011;19481;51.118;6.940;2022-07-29T14:33:59;4.30;;;1.88;;
33108;SDS011;19481;51.118;6.940;2022-07-29T14:39:00;10.32;;;5.15;;
33108;SDS011;19481;51.118;6.940;2022-07-29T14:44:04;6.10;;;2.50;;
33108;SDS011;19481;51.118;6.940;2022-07-29T14:49:05;6.38;;;2.17;;
33108;SDS011;19481;51.118;6.940;2022-07-29T14:54:08;10.60;;;3.08;;
33108;SDS011;19481;51.118;6.940;2022-07-29T14:59:11;5.18;;;2.08;;
33108;SDS011;19481;51.118;6.940;2022-07-29T15:04:13;4.13;;;2.15;;
33108;SDS011;19481;51.118;6.940;2022-07-29T15:09:14;4.82;;;1.58;;
33108;SDS011;19481;51.118;6.940;2022-07-29T15:14:18;5.60;;;2.20;;
33108;SDS011;19481;51.118;6.940;2022-07-29T15:19:19;7.28;;;2.92;;
33108;SDS011;19481;51.118;6.940;2022-07-29T15:24:21;11.88;;;3.97;;
33108;SDS011;19481;51.118;6.940;2022-07-29T15:29:24;9.43;;;2.03;;
33108;SDS011;19481;51.118;6.940;2022-07-29T15:34:25;11.52;;;3.70;;
33108;SDS011;19481;51.118;6.940;2022-07-29T15:39:27;6.20;;;2.80;;
33108;SDS011;19481;51.118;6.940;2022-07-29T15:44:30;5.63;;;3.13;;
33108;SDS011;19481;51.118;6.940;2022-07-29T15:49:32;9.48;;;3.67;;
33108;SDS011;19481;51.118;6.940;2022-07-29T15:54:37;9.00;;;4.18;;
33108;SDS011;19481;51.118;6.940;2022-07-29T15:59:41;6.20;;;2.83;;
33108;SDS011;19481;51.118;6.940;2022-07-29T16:04:43;4.95;;;2.50;;
33108;SDS011;19481;51.118;6.940;2022-07-29T16:09:44;7.20;;;1.77;;
33108;SDS011;19481;51.118;6.940;2022-07-29T16:14:47;9.02;;;1.80;;
33108;SDS011;19481;51.118;6.940;2022-07-29T16:19:50;5.00;;;1.65;;
33108;SDS011;19481;51.118;6.940;2022-07-29T16:24:52;4.00;;;1.80;;
33108;SDS011;19481;51.118;6.940;2022-07-29T16:29:55;6.00;;;1.70;;
33108;SDS011;19481;51.118;6.940;2022-07-29T16:34:56;3.40;;;1.55;;
33108;SDS011;19481;51.118;6.940;2022-07-29T16:40:01;3.00;;;1.58;;
33108;SDS011;19481;51.118;6.940;2022-07-29T16:45:04;2.55;;;1.40;;
33108;SDS011;19481;51.118;6.940;2022-07-29T16:50:08;4.22;;;1.60;;
33108;SDS011;19481;51.118;6.940;2022-07-29T16:55:10;7.82;;;2.00;;
33108;SDS011;19481;51.118;6.940;2022-07-29T17:00:14;3.03;;;1.70;;
33108;SDS011;19481;51.118;6.940;2022-07-29T17:05:17;2.83;;;1.40;;
33108;SDS011;19481;51.118;6.940;2022-07-29T17:10:19;8.32;;;1.65;;
33108;SDS011;19481;51.118;6.940;2022-07-29T17:15:22;5.00;;;1.70;;
33108;SDS011;19481;51.118;6.940;2022-07-29T17:20:24;4.10;;;1.63;;
33108;SDS011;19481;51.118;6.940;2022-07-29T17:25:26;3.72;;;1.42;;
33108;SDS011;19481;51.118;6.940;2022-07-29T17:30:29;5.40;;;1.70;;
33108;SDS011;19481;51.118;6.940;2022-07-29T17:35:31;4.45;;;2.30;;
33108;SDS011;19481;51.118;6.940;2022-07-29T17:40:50;4.32;;;1.80;;
33108;SDS011;19481;51.118;6.940;2022-07-29T17:45:53;5.63;;;1.70;;
33108;SDS011;19481;51.118;6.940;2022-07-29T17:50:55;6.40;;;1.88;;
33108;SDS011;19481;51.118;6.940;2022-07-29T17:55:57;3.25;;;1.58;;
33108;SDS011;19481;51.118;6.940;2022-07-29T18:01:00;3.92;;;2.15;;
33108;SDS011;19481;51.118;6.940;2022-07-29T18:06:02;6.82;;;2.55;;
33108;SDS011;19481;51.118;6.940;2022-07-29T18:11:03;4.05;;;1.73;;
33108;SDS011;19481;51.118;6.940;2022-07-29T18:16:07;4.50;;;1.52;;
33108;SDS011;19481;51.118;6.940;2022-07-29T18:21:09;4.22;;;1.60;;
33108;SDS011;19481;51.118;6.940;2022-07-29T18:26:11;3.38;;;1.70;;
33108;SDS011;19481;51.118;6.940;2022-07-29T18:31:14;6.70;;;3.42;;
33108;SDS011;19481;51.118;6.940;2022-07-29T18:36:16;9.15;;;4.88;;
33108;SDS011;19481;51.118;6.940;2022-07-29T18:41:17;3.42;;;2.92;;
33108;SDS011;19481;51.118;6.940;2022-07-29T18:46:20;9.88;;;4.40;;
33108;SDS011;19481;51.118;6.940;2022-07-29T18:51:22;8.43;;;4.18;;
33108;SDS011;19481;51.118;6.940;2022-07-29T18:56:24;7.20;;;4.43;;
33108;SDS011;19481;51.118;6.940;2022-07-29T19:01:26;2.70;;;2.25;;
33108;SDS011;19481;51.118;6.940;2022-07-29T19:06:28;5.35;;;2.67;;
33108;SDS011;19481;51.118;6.940;2022-07-29T19:11:30;6.10;;;2.15;;
33108;SDS011;19481;51.118;6.940;2022-07-29T19:16:33;4.90;;;1.83;;
33108;SDS011;19481;51.118;6.940;2022-07-29T19:21:35;5.32;;;2.30;;
33108;SDS011;19481;51.118;6.940;2022-07-29T19:26:36;3.97;;;1.80;;
33108;SDS011;19481;51.118;6.940;2022-07-29T19:31:44;5.38;;;1.92;;
33108;SDS011;19481;51.118;6.940;2022-07-29T19:36:45;5.45;;;2.20;;
33108;SDS011;19481;51.118;6.940;2022-07-29T19:41:47;7.00;;;1.80;;
33108;SDS011;19481;51.118;6.940;2022-07-29T19:46:50;5.38;;;1.80;;
33108;SDS011;19481;51.118;6.940;2022-07-29T19:51:52;4.10;;;2.00;;
33108;SDS011;19481;51.118;6.940;2022-07-29T19:56:54;5.60;;;2.58;;
33108;SDS011;19481;51.118;6.940;2022-07-29T20:01:57;5.78;;;3.40;;
33108;SDS011;19481;51.118;6.940;2022-07-29T20:06:59;3.70;;;2.70;;
33108;SDS011;19481;51.118;6.940;2022-07-29T20:12:01;6.32;;;3.92;;
33108;SDS011;19481;51.118;6.940;2022-07-29T20:17:05;11.18;;;4.82;;
33108;SDS011;19481;51.118;6.940;2022-07-29T20:22:06;5.30;;;3.17;;
33108;SDS011;19481;51.118;6.940;2022-07-29T20:27:09;8.63;;;4.13;;
33108;SDS011;19481;51.118;6.940;2022-07-29T20:32:12;10.13;;;4.32;;
33108;SDS011;19481;51.118;6.940;2022-07-29T20:37:13;7.40;;;3.42;;
33108;SDS011;19481;51.118;6.940;2022-07-29T20:42:17;4.35;;;2.72;;
33108;SDS011;19481;51.118;6.940;2022-07-29T20:47:20;5.85;;;2.42;;
33108;SDS011;19481;51.118;6.940;2022-07-29T20:52:22;4.78;;;2.38;;
33108;SDS011;19481;51.118;6.940;2022-07-29T20:57:23;5.20;;;2.10;;
33108;SDS011;19481;51.118;6.940;2022-07-29T21:02:27;7.75;;;2.22;;
33108;SDS011;19481;51.118;6.940;2022-07-29T21:07:28;5.60;;;2.47;;
33108;SDS011;19481;51.118;6.940;2022-07-29T21:12:30;5.20;;;3.10;;
33108;SDS011;19481;51.118;6.940;2022-07-29T21:17:34;8.02;;;3.83;;
33108;SDS011;19481;51.118;6.940;2022-07-29T21:22:37;9.07;;;3.72;;
33108;SDS011;19481;51.118;6.940;2022-07-29T21:27:39;5.72;;;3.10;;
33108;SDS011;19481;51.118;6.940;2022-07-29T21:33:01;10.30;;;6.03;;
33108;SDS011;19481;51.118;6.940;2022-07-29T21:38:03;11.43;;;4.20;;
33108;SDS011;19481;51.118;6.940;2022-07-29T21:43:05;6.68;;;3.30;;
33108;SDS011;19481;51.118;6.940;2022-07-29T21:48:08;8.55;;;3.38;;
33108;SDS011;19481;51.118;6.940;2022-07-29T21:53:10;8.27;;;4.88;;
33108;SDS011;19481;51.118;6.940;2022-07-29T21:58:12;5.38;;;3.85;;
33108;SDS011;19481;51.118;6.940;2022-07-29T22:03:16;9.70;;;5.10;;
33108;SDS011;19481;51.118;6.940;2022-07-29T22:08:18;9.05;;;3.42;;
33108;SDS011;19481;51.118;6.940;2022-07-29T22:13:19;4.00;;;2.58;;
33108;SDS011;19481;51.118;6.940;2022-07-29T22:18:22;7.75;;;2.45;;
33108;SDS011;19481;51.118;6.940;2022-07-29T22:23:24;3.42;;;2.55;;
33108;SDS011;19481;51.118;6.940;2022-07-29T22:28:26;4.68;;;2.40;;
33108;SDS011;19481;51.118;6.940;2022-07-29T22:33:28;4.70;;;2.60;;
33108;SDS011;19481;51.118;6.940;2022-07-29T22:38:30;9.15;;;2.78;;
33108;SDS011;19481;51.118;6.940;2022-07-29T22:43:32;3.05;;;2.20;;
33108;SDS011;19481;51.118;6.940;2022-07-29T22:48:35;4.53;;;2.78;;
33108;SDS011;19481;51.118;6.940;2022-07-29T22:53:37;5.32;;;2.90;;
33108;SDS011;19481;51.118;6.940;2022-07-29T22:58:38;17.90;;;8.77;;
33108;SDS011;19481;51.118;6.940;2022-07-29T23:03:41;12.15;;;6.63;;
33108;SDS011;19481;51.118;6.940;2022-07-29T23:08:43;10.60;;;5.95;;
33108;SDS011;19481;51.118;6.940;2022-07-29T23:13:45;25.48;;;13.23;;
33108;SDS011;19481;51.118;6.940;2022-07-29T23:18:48;13.75;;;8.10;;
33108;SDS011;19481;51.118;6.940;2022-07-29T23:23:51;13.27;;;8.50;;
33108;SDS011;19481;51.118;6.940;2022-07-29T23:28:53;13.48;;;6.43;;
33108;SDS011;19481;51.118;6.940;2022-07-29T23:33:55;8.35;;;5.82;;
33108;SDS011;19481;51.118;6.940;2022-07-29T23:38:57;6.80;;;4.00;;
33108;SDS011;19481;51.118;6.940;2022-07-29T23:43:59;6.78;;;3.45;;
33108;SDS011;19481;51.118;6.940;2022-07-29T23:49:02;8.27;;;3.90;;
33108;SDS011;19481;51.118;6.940;2022-07-29T23:54:03;5.03;;;3.05;;
33108;SDS011;19481;51.118;6.940;2022-07-29T23:59:05;5.22;;;3.22;;
